sensor_id;sensor_type;location;lat;lon;timestamp;P1;durP1;ratioP1;P2;durP2;ratioP2
31390;SDS011;18022;45.492;11.548;2023-03-01T00:01:53;14.43;;;9.40;;
31390;SDS011;18022;45.492;11.548;2023-03-01T00:04:19;17.75;;;9.35;;
31390;SDS011;18022;45.492;11.548;2023-03-01T00:06:45;15.50;;;10.50;;
31390;SDS011;18022;45.492;11.548;2023-03-01T00:09:13;17.13;;;9.90;;
31390;SDS011;18022;45.492;11.548;2023-03-01T00:11:39;15.65;;;10.30;;
31390;SDS011;18022;45.492;11.548;2023-03-01T00:14:05;14.65;;;10.25;;
31390;SDS011;18022;45.492;11.548;2023-03-01T00:16:32;14.55;;;10.00;;
31390;SDS011;18022;45.492;11.548;2023-03-01T00:18:59;17.02;;;10.88;;
31390;SDS011;18022;45.492;11.548;2023-03-01T00:21:25;15.25;;;10.85;;
31390;SDS011;18022;45.492;11.548;2023-03-01T00:23:52;15.65;;;10.05;;
31390;SDS011;18022;45.492;11.548;2023-03-01T00:26:18;17.33;;;10.85;;
31390;SDS011;18022;45.492;11.548;2023-03-01T00:28:45;14.18;;;10.00;;
31390;SDS011;18022;45.492;11.548;2023-03-01T00:31:13;16.95;;;10.00;;
31390;SDS011;18022;45.492;11.548;2023-03-01T00:33:39;15.25;;;10.05;;
31390;SDS011;18022;45.492;11.548;2023-03-01T00:36:06;14.60;;;10.40;;
31390;SDS011;18022;45.492;11.548;2023-03-01T00:38:35;15.20;;;10.35;;
31390;SDS011;18022;45.492;11.548;2023-03-01T00:41:05;17.48;;;10.75;;
31390;SDS011;18022;45.492;11.548;2023-03-01T00:43:32;15.68;;;11.02;;
31390;SDS011;18022;45.492;11.548;2023-03-01T00:46:02;17.45;;;10.27;;
31390;SDS011;18022;45.492;11.548;2023-03-01T00:48:28;16.52;;;10.20;;
31390;SDS011;18022;45.492;11.548;2023-03-01T00:50:54;16.17;;;11.05;;
31390;SDS011;18022;45.492;11.548;2023-03-01T00:53:20;16.35;;;10.93;;
31390;SDS011;18022;45.492;11.548;2023-03-01T00:55:46;17.17;;;11.18;;
31390;SDS011;18022;45.492;11.548;2023-03-01T00:58:12;15.80;;;10.60;;
31390;SDS011;18022;45.492;11.548;2023-03-01T01:00:38;18.52;;;11.35;;
31390;SDS011;18022;45.492;11.548;2023-03-01T01:03:04;19.05;;;11.73;;
31390;SDS011;18022;45.492;11.548;2023-03-01T01:05:33;18.35;;;11.82;;
31390;SDS011;18022;45.492;11.548;2023-03-01T01:07:59;16.17;;;11.27;;
31390;SDS011;18022;45.492;11.548;2023-03-01T01:10:25;17.02;;;11.65;;
31390;SDS011;18022;45.492;11.548;2023-03-01T01:12:51;21.95;;;11.85;;
31390;SDS011;18022;45.492;11.548;2023-03-01T01:15:17;17.50;;;12.02;;
31390;SDS011;18022;45.492;11.548;2023-03-01T01:17:43;16.80;;;11.63;;
31390;SDS011;18022;45.492;11.548;2023-03-01T01:20:10;19.83;;;11.95;;
31390;SDS011;18022;45.492;11.548;2023-03-01T01:22:36;16.23;;;11.70;;
31390;SDS011;18022;45.492;11.548;2023-03-01T01:25:02;17.92;;;12.27;;
31390;SDS011;18022;45.492;11.548;2023-03-01T01:27:29;17.15;;;11.57;;
31390;SDS011;18022;45.492;11.548;2023-03-01T01:29:55;15.55;;;11.05;;
31390;SDS011;18022;45.492;11.548;2023-03-01T01:32:22;18.65;;;11.50;;
31390;SDS011;18022;45.492;11.548;2023-03-01T01:34:48;15.82;;;10.85;;
31390;SDS011;18022;45.492;11.548;2023-03-01T01:37:14;17.73;;;11.00;;
31390;SDS011;18022;45.492;11.548;2023-03-01T01:39:40;16.30;;;11.07;;
31390;SDS011;18022;45.492;11.548;2023-03-01T01:42:06;17.83;;;11.52;;
31390;SDS011;18022;45.492;11.548;2023-03-01T01:44:34;15.93;;;10.68;;
31390;SDS011;18022;45.492;11.548;2023-03-01T01:49:28;16.58;;;11.32;;
31390;SDS011;18022;45.492;11.548;2023-03-01T01:52:00;18.45;;;11.00;;
31390;SDS011;18022;45.492;11.548;2023-03-01T01:54:29;18.65;;;10.85;;
31390;SDS011;18022;45.492;11.548;2023-03-01T01:56:57;15.40;;;10.55;;
31390;SDS011;18022;45.492;11.548;2023-03-01T01:59:26;16.45;;;11.18;;
31390;SDS011;18022;45.492;11.548;2023-03-01T02:01:52;16.08;;;11.30;;
31390;SDS011;18022;45.492;11.548;2023-03-01T02:04:19;18.50;;;11.23;;
31390;SDS011;18022;45.492;11.548;2023-03-01T02:06:49;16.52;;;11.15;;
31390;SDS011;18022;45.492;11.548;2023-03-01T02:09:17;16.20;;;10.80;;
31390;SDS011;18022;45.492;11.548;2023-03-01T02:11:44;16.00;;;11.05;;
31390;SDS011;18022;45.492;11.548;2023-03-01T02:14:10;17.70;;;12.82;;
31390;SDS011;18022;45.492;11.548;2023-03-01T02:16:36;18.65;;;12.13;;
31390;SDS011;18022;45.492;11.548;2023-03-01T02:19:03;21.90;;;11.57;;
31390;SDS011;18022;45.492;11.548;2023-03-01T02:23:57;17.27;;;11.73;;
31390;SDS011;18022;45.492;11.548;2023-03-01T02:26:26;15.93;;;10.75;;
31390;SDS011;18022;45.492;11.548;2023-03-01T02:28:56;18.58;;;10.63;;
31390;SDS011;18022;45.492;11.548;2023-03-01T02:31:22;15.02;;;10.65;;
31390;SDS011;18022;45.492;11.548;2023-03-01T02:34:07;15.80;;;10.55;;
31390;SDS011;18022;45.492;11.548;2023-03-01T02:36:44;16.05;;;10.75;;
31390;SDS011;18022;45.492;11.548;2023-03-01T02:39:14;13.30;;;10.05;;
31390;SDS011;18022;45.492;11.548;2023-03-01T02:41:46;17.98;;;10.85;;
31390;SDS011;18022;45.492;11.548;2023-03-01T02:44:13;14.77;;;10.82;;
31390;SDS011;18022;45.492;11.548;2023-03-01T02:46:47;14.65;;;9.65;;
31390;SDS011;18022;45.492;11.548;2023-03-01T02:49:21;15.18;;;9.75;;
31390;SDS011;18022;45.492;11.548;2023-03-01T02:57:17;15.07;;;10.30;;
31390;SDS011;18022;45.492;11.548;2023-03-01T02:59:43;18.55;;;10.07;;
31390;SDS011;18022;45.492;11.548;2023-03-01T03:04:46;16.42;;;10.68;;
31390;SDS011;18022;45.492;11.548;2023-03-01T03:07:12;16.27;;;10.40;;
31390;SDS011;18022;45.492;11.548;2023-03-01T03:09:38;14.90;;;10.63;;
31390;SDS011;18022;45.492;11.548;2023-03-01T03:12:04;17.48;;;11.05;;
31390;SDS011;18022;45.492;11.548;2023-03-01T03:14:30;15.45;;;10.52;;
31390;SDS011;18022;45.492;11.548;2023-03-01T03:16:59;15.18;;;10.93;;
31390;SDS011;18022;45.492;11.548;2023-03-01T03:19:26;15.27;;;10.63;;
31390;SDS011;18022;45.492;11.548;2023-03-01T03:21:52;14.48;;;10.27;;
31390;SDS011;18022;45.492;11.548;2023-03-01T03:24:18;16.42;;;10.20;;
31390;SDS011;18022;45.492;11.548;2023-03-01T03:26:44;13.27;;;9.90;;
31390;SDS011;18022;45.492;11.548;2023-03-01T03:29:10;13.77;;;9.75;;
31390;SDS011;18022;45.492;11.548;2023-03-01T03:31:36;13.57;;;10.60;;
31390;SDS011;18022;45.492;11.548;2023-03-01T03:34:02;14.65;;;10.30;;
31390;SDS011;18022;45.492;11.548;2023-03-01T03:36:28;14.18;;;9.55;;
31390;SDS011;18022;45.492;11.548;2023-03-01T03:38:54;13.95;;;9.55;;
31390;SDS011;18022;45.492;11.548;2023-03-01T03:41:20;14.65;;;9.02;;
31390;SDS011;18022;45.492;11.548;2023-03-01T03:43:46;12.57;;;8.48;;
31390;SDS011;18022;45.492;11.548;2023-03-01T03:46:13;12.70;;;9.15;;
31390;SDS011;18022;45.492;11.548;2023-03-01T03:48:40;14.55;;;9.50;;
31390;SDS011;18022;45.492;11.548;2023-03-01T03:51:09;12.73;;;8.90;;
31390;SDS011;18022;45.492;11.548;2023-03-01T03:53:35;13.23;;;9.25;;
31390;SDS011;18022;45.492;11.548;2023-03-01T03:56:01;15.55;;;9.85;;
31390;SDS011;18022;45.492;11.548;2023-03-01T03:58:28;13.45;;;9.30;;
31390;SDS011;18022;45.492;11.548;2023-03-01T04:00:55;12.38;;;9.55;;
31390;SDS011;18022;45.492;11.548;2023-03-01T04:03:22;16.67;;;10.43;;
31390;SDS011;18022;45.492;11.548;2023-03-01T04:05:48;12.80;;;9.70;;
31390;SDS011;18022;45.492;11.548;2023-03-01T04:08:18;15.43;;;10.55;;
31390;SDS011;18022;45.492;11.548;2023-03-01T04:10:46;15.68;;;9.55;;
31390;SDS011;18022;45.492;11.548;2023-03-01T04:13:14;13.32;;;9.90;;
31390;SDS011;18022;45.492;11.548;2023-03-01T04:15:40;13.50;;;9.90;;
31390;SDS011;18022;45.492;11.548;2023-03-01T04:18:14;14.13;;;10.52;;
31390;SDS011;18022;45.492;11.548;2023-03-01T04:20:40;14.80;;;10.07;;
31390;SDS011;18022;45.492;11.548;2023-03-01T04:23:08;15.45;;;9.80;;
31390;SDS011;18022;45.492;11.548;2023-03-01T04:25:38;16.77;;;11.30;;
31390;SDS011;18022;45.492;11.548;2023-03-01T04:28:04;16.88;;;11.10;;
31390;SDS011;18022;45.492;11.548;2023-03-01T04:30:31;15.27;;;10.95;;
31390;SDS011;18022;45.492;11.548;2023-03-01T04:33:01;17.23;;;11.23;;
31390;SDS011;18022;45.492;11.548;2023-03-01T04:35:27;14.75;;;10.80;;
31390;SDS011;18022;45.492;11.548;2023-03-01T04:37:53;14.50;;;10.65;;
31390;SDS011;18022;45.492;11.548;2023-03-01T04:40:20;22.15;;;12.50;;
31390;SDS011;18022;45.492;11.548;2023-03-01T04:42:46;17.80;;;13.15;;
31390;SDS011;18022;45.492;11.548;2023-03-01T04:45:12;22.00;;;13.50;;
31390;SDS011;18022;45.492;11.548;2023-03-01T04:47:42;17.83;;;12.70;;
31390;SDS011;18022;45.492;11.548;2023-03-01T04:50:09;19.90;;;13.35;;
31390;SDS011;18022;45.492;11.548;2023-03-01T04:52:36;17.83;;;13.00;;
31390;SDS011;18022;45.492;11.548;2023-03-01T04:55:03;19.05;;;12.40;;
31390;SDS011;18022;45.492;11.548;2023-03-01T04:57:29;16.73;;;12.07;;
31390;SDS011;18022;45.492;11.548;2023-03-01T04:59:55;16.73;;;11.68;;
31390;SDS011;18022;45.492;11.548;2023-03-01T05:02:21;15.68;;;11.70;;
31390;SDS011;18022;45.492;11.548;2023-03-01T05:04:47;17.23;;;12.20;;
31390;SDS011;18022;45.492;11.548;2023-03-01T05:07:13;19.88;;;11.82;;
31390;SDS011;18022;45.492;11.548;2023-03-01T05:09:47;18.35;;;11.52;;
31390;SDS011;18022;45.492;11.548;2023-03-01T05:12:14;17.38;;;11.40;;
31390;SDS011;18022;45.492;11.548;2023-03-01T05:14:40;16.40;;;11.38;;
31390;SDS011;18022;45.492;11.548;2023-03-01T05:17:07;18.13;;;11.30;;
31390;SDS011;18022;45.492;11.548;2023-03-01T05:19:33;18.25;;;11.75;;
31390;SDS011;18022;45.492;11.548;2023-03-01T05:21:59;18.33;;;12.02;;
31390;SDS011;18022;45.492;11.548;2023-03-01T05:24:32;17.25;;;11.85;;
31390;SDS011;18022;45.492;11.548;2023-03-01T05:26:58;19.13;;;11.77;;
31390;SDS011;18022;45.492;11.548;2023-03-01T05:29:25;15.90;;;11.35;;
31390;SDS011;18022;45.492;11.548;2023-03-01T05:31:53;25.35;;;11.93;;
31390;SDS011;18022;45.492;11.548;2023-03-01T05:34:23;16.83;;;11.43;;
31390;SDS011;18022;45.492;11.548;2023-03-01T05:36:50;20.35;;;11.98;;
31390;SDS011;18022;45.492;11.548;2023-03-01T05:39:18;19.23;;;10.88;;
31390;SDS011;18022;45.492;11.548;2023-03-01T05:41:46;16.52;;;11.30;;
31390;SDS011;18022;45.492;11.548;2023-03-01T05:44:12;17.23;;;11.60;;
31390;SDS011;18022;45.492;11.548;2023-03-01T05:46:39;16.65;;;11.43;;
31390;SDS011;18022;45.492;11.548;2023-03-01T05:49:05;19.67;;;11.13;;
31390;SDS011;18022;45.492;11.548;2023-03-01T05:51:31;16.65;;;11.00;;
31390;SDS011;18022;45.492;11.548;2023-03-01T05:53:58;17.70;;;11.38;;
31390;SDS011;18022;45.492;11.548;2023-03-01T05:56:24;21.08;;;12.40;;
31390;SDS011;18022;45.492;11.548;2023-03-01T05:58:50;16.23;;;11.63;;
31390;SDS011;18022;45.492;11.548;2023-03-01T06:01:16;17.80;;;11.52;;
31390;SDS011;18022;45.492;11.548;2023-03-01T06:03:42;17.85;;;10.82;;
31390;SDS011;18022;45.492;11.548;2023-03-01T06:06:09;17.67;;;11.77;;
31390;SDS011;18022;45.492;11.548;2023-03-01T06:08:35;17.05;;;12.45;;
31390;SDS011;18022;45.492;11.548;2023-03-01T06:11:01;18.48;;;11.88;;
31390;SDS011;18022;45.492;11.548;2023-03-01T06:13:27;19.30;;;12.35;;
31390;SDS011;18022;45.492;11.548;2023-03-01T06:15:53;18.35;;;12.20;;
31390;SDS011;18022;45.492;11.548;2023-03-01T06:18:19;15.65;;;11.27;;
31390;SDS011;18022;45.492;11.548;2023-03-01T06:20:45;18.35;;;11.82;;
31390;SDS011;18022;45.492;11.548;2023-03-01T06:23:17;17.77;;;11.95;;
31390;SDS011;18022;45.492;11.548;2023-03-01T06:25:43;17.13;;;11.45;;
31390;SDS011;18022;45.492;11.548;2023-03-01T06:28:09;16.52;;;10.50;;
31390;SDS011;18022;45.492;11.548;2023-03-01T06:30:35;14.95;;;10.30;;
31390;SDS011;18022;45.492;11.548;2023-03-01T06:33:01;18.23;;;13.43;;
31390;SDS011;18022;45.492;11.548;2023-03-01T06:35:30;23.83;;;12.23;;
31390;SDS011;18022;45.492;11.548;2023-03-01T06:37:57;16.80;;;11.68;;
31390;SDS011;18022;45.492;11.548;2023-03-01T06:40:24;12.57;;;9.20;;
31390;SDS011;18022;45.492;11.548;2023-03-01T06:42:50;14.07;;;9.90;;
31390;SDS011;18022;45.492;11.548;2023-03-01T06:45:17;14.35;;;10.07;;
31390;SDS011;18022;45.492;11.548;2023-03-01T06:47:43;16.57;;;9.97;;
31390;SDS011;18022;45.492;11.548;2023-03-01T06:50:10;17.60;;;10.13;;
31390;SDS011;18022;45.492;11.548;2023-03-01T06:52:36;14.15;;;8.93;;
31390;SDS011;18022;45.492;11.548;2023-03-01T06:55:02;17.23;;;10.55;;
31390;SDS011;18022;45.492;11.548;2023-03-01T06:57:28;15.18;;;10.02;;
31390;SDS011;18022;45.492;11.548;2023-03-01T06:59:55;13.52;;;10.15;;
31390;SDS011;18022;45.492;11.548;2023-03-01T07:02:21;13.82;;;9.10;;
31390;SDS011;18022;45.492;11.548;2023-03-01T07:04:48;18.35;;;11.05;;
31390;SDS011;18022;45.492;11.548;2023-03-01T07:07:15;14.98;;;9.68;;
31390;SDS011;18022;45.492;11.548;2023-03-01T07:09:43;14.48;;;8.88;;
31390;SDS011;18022;45.492;11.548;2023-03-01T07:12:09;16.45;;;10.52;;
31390;SDS011;18022;45.492;11.548;2023-03-01T07:14:35;13.60;;;9.20;;
31390;SDS011;18022;45.492;11.548;2023-03-01T07:17:01;18.13;;;7.22;;
31390;SDS011;18022;45.492;11.548;2023-03-01T07:19:27;43.65;;;8.73;;
31390;SDS011;18022;45.492;11.548;2023-03-01T07:21:53;17.73;;;10.40;;
31390;SDS011;18022;45.492;11.548;2023-03-01T07:24:20;15.32;;;10.23;;
31390;SDS011;18022;45.492;11.548;2023-03-01T07:26:50;14.80;;;10.35;;
31390;SDS011;18022;45.492;11.548;2023-03-01T07:29:16;31.58;;;8.88;;
31390;SDS011;18022;45.492;11.548;2023-03-01T07:31:42;15.32;;;10.50;;
31390;SDS011;18022;45.492;11.548;2023-03-01T07:34:08;19.55;;;10.60;;
31390;SDS011;18022;45.492;11.548;2023-03-01T07:36:35;20.30;;;12.33;;
31390;SDS011;18022;45.492;11.548;2023-03-01T07:39:01;18.67;;;12.20;;
31390;SDS011;18022;45.492;11.548;2023-03-01T07:41:28;19.75;;;11.93;;
31390;SDS011;18022;45.492;11.548;2023-03-01T07:43:54;18.65;;;11.85;;
31390;SDS011;18022;45.492;11.548;2023-03-01T07:46:21;18.55;;;11.65;;
31390;SDS011;18022;45.492;11.548;2023-03-01T07:48:47;23.65;;;11.88;;
31390;SDS011;18022;45.492;11.548;2023-03-01T07:51:13;15.88;;;10.55;;
31390;SDS011;18022;45.492;11.548;2023-03-01T07:53:39;14.00;;;9.88;;
31390;SDS011;18022;45.492;11.548;2023-03-01T07:56:07;14.85;;;10.10;;
31390;SDS011;18022;45.492;11.548;2023-03-01T07:58:36;15.68;;;10.60;;
31390;SDS011;18022;45.492;11.548;2023-03-01T08:01:06;16.05;;;9.93;;
31390;SDS011;18022;45.492;11.548;2023-03-01T08:03:33;14.40;;;9.93;;
31390;SDS011;18022;45.492;11.548;2023-03-01T08:05:59;15.10;;;9.93;;
31390;SDS011;18022;45.492;11.548;2023-03-01T08:08:25;14.07;;;9.68;;
31390;SDS011;18022;45.492;11.548;2023-03-01T08:10:52;15.30;;;8.93;;
31390;SDS011;18022;45.492;11.548;2023-03-01T08:13:18;20.55;;;10.63;;
31390;SDS011;18022;45.492;11.548;2023-03-01T08:15:47;14.43;;;8.90;;
31390;SDS011;18022;45.492;11.548;2023-03-01T08:18:14;18.30;;;8.98;;
31390;SDS011;18022;45.492;11.548;2023-03-01T08:20:40;12.98;;;8.50;;
31390;SDS011;18022;45.492;11.548;2023-03-01T08:23:06;13.18;;;8.77;;
31390;SDS011;18022;45.492;11.548;2023-03-01T08:25:32;20.65;;;8.98;;
31390;SDS011;18022;45.492;11.548;2023-03-01T08:27:58;15.73;;;9.57;;
31390;SDS011;18022;45.492;11.548;2023-03-01T08:30:24;13.68;;;7.15;;
31390;SDS011;18022;45.492;11.548;2023-03-01T08:32:50;20.48;;;12.55;;
31390;SDS011;18022;45.492;11.548;2023-03-01T08:35:16;15.20;;;11.80;;
31390;SDS011;18022;45.492;11.548;2023-03-01T08:37:42;16.00;;;9.10;;
31390;SDS011;18022;45.492;11.548;2023-03-01T08:40:10;14.27;;;9.05;;
31390;SDS011;18022;45.492;11.548;2023-03-01T08:42:38;11.75;;;8.32;;
31390;SDS011;18022;45.492;11.548;2023-03-01T08:45:04;15.55;;;8.60;;
31390;SDS011;18022;45.492;11.548;2023-03-01T08:47:30;12.85;;;8.55;;
31390;SDS011;18022;45.492;11.548;2023-03-01T08:49:58;13.25;;;9.10;;
31390;SDS011;18022;45.492;11.548;2023-03-01T08:52:24;12.32;;;8.50;;
31390;SDS011;18022;45.492;11.548;2023-03-01T08:54:51;14.37;;;9.80;;
31390;SDS011;18022;45.492;11.548;2023-03-01T08:57:17;16.38;;;9.98;;
31390;SDS011;18022;45.492;11.548;2023-03-01T08:59:44;14.57;;;9.45;;
31390;SDS011;18022;45.492;11.548;2023-03-01T09:02:14;14.05;;;8.68;;
31390;SDS011;18022;45.492;11.548;2023-03-01T09:04:41;14.50;;;8.55;;
31390;SDS011;18022;45.492;11.548;2023-03-01T09:07:07;14.75;;;8.43;;
31390;SDS011;18022;45.492;11.548;2023-03-01T09:09:34;10.40;;;8.43;;
31390;SDS011;18022;45.492;11.548;2023-03-01T09:12:00;15.27;;;8.80;;
31390;SDS011;18022;45.492;11.548;2023-03-01T09:14:27;14.43;;;8.82;;
31390;SDS011;18022;45.492;11.548;2023-03-01T09:16:53;11.68;;;8.35;;
31390;SDS011;18022;45.492;11.548;2023-03-01T09:19:19;12.02;;;8.77;;
31390;SDS011;18022;45.492;11.548;2023-03-01T09:21:45;9.95;;;8.13;;
31390;SDS011;18022;45.492;11.548;2023-03-01T09:24:19;12.88;;;8.82;;
31390;SDS011;18022;45.492;11.548;2023-03-01T09:26:46;12.32;;;8.32;;
31390;SDS011;18022;45.492;11.548;2023-03-01T09:29:12;14.07;;;8.07;;
31390;SDS011;18022;45.492;11.548;2023-03-01T09:31:39;11.82;;;7.90;;
31390;SDS011;18022;45.492;11.548;2023-03-01T09:34:06;12.85;;;8.00;;
31390;SDS011;18022;45.492;11.548;2023-03-01T09:36:32;11.63;;;6.60;;
31390;SDS011;18022;45.492;11.548;2023-03-01T09:38:58;10.60;;;6.82;;
31390;SDS011;18022;45.492;11.548;2023-03-01T09:44:15;15.18;;;9.50;;
31390;SDS011;18022;45.492;11.548;2023-03-01T09:46:44;9.07;;;7.55;;
31390;SDS011;18022;45.492;11.548;2023-03-01T09:49:15;9.40;;;7.45;;
31390;SDS011;18022;45.492;11.548;2023-03-01T09:51:43;9.98;;;6.65;;
31390;SDS011;18022;45.492;11.548;2023-03-01T09:54:14;10.90;;;7.93;;
31390;SDS011;18022;45.492;11.548;2023-03-01T09:56:41;10.63;;;7.32;;
31390;SDS011;18022;45.492;11.548;2023-03-01T09:59:34;11.05;;;7.65;;
31390;SDS011;18022;45.492;11.548;2023-03-01T10:04:47;13.82;;;6.85;;
31390;SDS011;18022;45.492;11.548;2023-03-01T10:07:27;13.00;;;7.25;;
31390;SDS011;18022;45.492;11.548;2023-03-01T10:09:55;11.13;;;7.50;;
31390;SDS011;18022;45.492;11.548;2023-03-01T10:12:25;10.00;;;6.45;;
31390;SDS011;18022;45.492;11.548;2023-03-01T10:19:58;9.43;;;6.28;;
31390;SDS011;18022;45.492;11.548;2023-03-01T10:22:31;11.25;;;5.55;;
31390;SDS011;18022;45.492;11.548;2023-03-01T10:24:58;7.88;;;5.47;;
31390;SDS011;18022;45.492;11.548;2023-03-01T10:27:26;11.90;;;7.22;;
31390;SDS011;18022;45.492;11.548;2023-03-01T10:30:17;15.07;;;8.73;;
31390;SDS011;18022;45.492;11.548;2023-03-01T10:32:45;23.77;;;11.55;;
31390;SDS011;18022;45.492;11.548;2023-03-01T10:40:24;11.38;;;6.38;;
31390;SDS011;18022;45.492;11.548;2023-03-01T10:42:50;20.70;;;10.95;;
31390;SDS011;18022;45.492;11.548;2023-03-01T10:45:30;13.80;;;8.43;;
31390;SDS011;18022;45.492;11.548;2023-03-01T10:48:29;8.93;;;6.00;;
31390;SDS011;18022;45.492;11.548;2023-03-01T10:51:04;8.65;;;5.55;;
31390;SDS011;18022;45.492;11.548;2023-03-01T10:53:43;14.05;;;8.57;;
31390;SDS011;18022;45.492;11.548;2023-03-01T10:56:14;9.57;;;6.30;;
31390;SDS011;18022;45.492;11.548;2023-03-01T11:01:36;12.32;;;6.63;;
31390;SDS011;18022;45.492;11.548;2023-03-01T11:06:31;8.70;;;7.32;;
31390;SDS011;18022;45.492;11.548;2023-03-01T11:08:57;6.30;;;4.65;;
31390;SDS011;18022;45.492;11.548;2023-03-01T11:11:38;8.00;;;5.95;;
31390;SDS011;18022;45.492;11.548;2023-03-01T11:14:12;8.43;;;6.40;;
31390;SDS011;18022;45.492;11.548;2023-03-01T11:16:41;9.43;;;5.90;;
31390;SDS011;18022;45.492;11.548;2023-03-01T11:21:37;7.85;;;5.18;;
31390;SDS011;18022;45.492;11.548;2023-03-01T11:24:05;8.32;;;5.45;;
31390;SDS011;18022;45.492;11.548;2023-03-01T11:26:33;12.20;;;4.75;;
31390;SDS011;18022;45.492;11.548;2023-03-01T11:29:03;9.05;;;5.07;;
31390;SDS011;18022;45.492;11.548;2023-03-01T11:31:29;9.82;;;5.50;;
31390;SDS011;18022;45.492;11.548;2023-03-01T11:33:58;9.52;;;5.70;;
31390;SDS011;18022;45.492;11.548;2023-03-01T11:36:32;11.45;;;6.03;;
31390;SDS011;18022;45.492;11.548;2023-03-01T11:39:03;9.23;;;5.38;;
31390;SDS011;18022;45.492;11.548;2023-03-01T11:41:30;9.00;;;4.47;;
31390;SDS011;18022;45.492;11.548;2023-03-01T11:44:01;9.02;;;4.32;;
31390;SDS011;18022;45.492;11.548;2023-03-01T11:51:41;15.57;;;4.97;;
31390;SDS011;18022;45.492;11.548;2023-03-01T11:56:45;9.15;;;4.65;;
31390;SDS011;18022;45.492;11.548;2023-03-01T11:59:17;16.55;;;4.10;;
31390;SDS011;18022;45.492;11.548;2023-03-01T12:04:19;12.40;;;4.85;;
31390;SDS011;18022;45.492;11.548;2023-03-01T12:09:21;12.13;;;4.13;;
31390;SDS011;18022;45.492;11.548;2023-03-01T12:25:16;11.73;;;5.00;;
31390;SDS011;18022;45.492;11.548;2023-03-01T12:31:09;13.77;;;5.00;;
31390;SDS011;18022;45.492;11.548;2023-03-01T12:48:49;14.55;;;6.30;;
31390;SDS011;18022;45.492;11.548;2023-03-01T12:51:19;12.43;;;5.90;;
31390;SDS011;18022;45.492;11.548;2023-03-01T12:53:47;19.77;;;5.82;;
31390;SDS011;18022;45.492;11.548;2023-03-01T12:56:18;16.65;;;6.07;;
31390;SDS011;18022;45.492;11.548;2023-03-01T13:04:06;22.85;;;7.82;;
31390;SDS011;18022;45.492;11.548;2023-03-01T13:11:56;22.27;;;7.00;;
31390;SDS011;18022;45.492;11.548;2023-03-01T13:16:49;18.23;;;8.80;;
31390;SDS011;18022;45.492;11.548;2023-03-01T13:19:16;15.60;;;9.18;;
31390;SDS011;18022;45.492;11.548;2023-03-01T13:21:43;18.13;;;8.07;;
31390;SDS011;18022;45.492;11.548;2023-03-01T13:24:29;17.63;;;7.83;;
31390;SDS011;18022;45.492;11.548;2023-03-01T13:32:27;13.88;;;5.63;;
31390;SDS011;18022;45.492;11.548;2023-03-01T13:35:55;13.85;;;6.20;;
31390;SDS011;18022;45.492;11.548;2023-03-01T13:37:49;10.93;;;7.03;;
31390;SDS011;18022;45.492;11.548;2023-03-01T13:42:43;17.95;;;7.38;;
31390;SDS011;18022;45.492;11.548;2023-03-01T13:47:58;13.55;;;6.75;;
31390;SDS011;18022;45.492;11.548;2023-03-01T13:50:26;9.52;;;7.05;;
31390;SDS011;18022;45.492;11.548;2023-03-01T13:52:54;14.15;;;7.40;;
31390;SDS011;18022;45.492;11.548;2023-03-01T13:55:29;13.10;;;6.55;;
31390;SDS011;18022;45.492;11.548;2023-03-01T13:57:57;11.07;;;8.10;;
31390;SDS011;18022;45.492;11.548;2023-03-01T14:00:25;16.38;;;8.63;;
31390;SDS011;18022;45.492;11.548;2023-03-01T14:03:01;12.80;;;9.10;;
31390;SDS011;18022;45.492;11.548;2023-03-01T14:05:28;14.68;;;8.52;;
31390;SDS011;18022;45.492;11.548;2023-03-01T14:07:55;19.23;;;9.23;;
31390;SDS011;18022;45.492;11.548;2023-03-01T14:10:21;20.20;;;8.98;;
31390;SDS011;18022;45.492;11.548;2023-03-01T14:20:24;12.75;;;8.88;;
31390;SDS011;18022;45.492;11.548;2023-03-01T14:22:52;13.90;;;8.40;;
31390;SDS011;18022;45.492;11.548;2023-03-01T14:25:23;15.27;;;7.93;;
31390;SDS011;18022;45.492;11.548;2023-03-01T14:27:58;17.42;;;8.35;;
31390;SDS011;18022;45.492;11.548;2023-03-01T14:30:30;15.30;;;8.00;;
31390;SDS011;18022;45.492;11.548;2023-03-01T14:32:58;15.05;;;8.77;;
31390;SDS011;18022;45.492;11.548;2023-03-01T14:35:26;14.88;;;8.10;;
31390;SDS011;18022;45.492;11.548;2023-03-01T14:37:52;14.05;;;7.97;;
31390;SDS011;18022;45.492;11.548;2023-03-01T14:42:51;16.60;;;9.50;;
31390;SDS011;18022;45.492;11.548;2023-03-01T14:45:17;17.75;;;11.57;;
31390;SDS011;18022;45.492;11.548;2023-03-01T14:47:45;14.00;;;9.23;;
31390;SDS011;18022;45.492;11.548;2023-03-01T14:52:41;16.80;;;7.93;;
31390;SDS011;18022;45.492;11.548;2023-03-01T14:57:34;12.27;;;7.57;;
31390;SDS011;18022;45.492;11.548;2023-03-01T15:00:02;12.75;;;8.25;;
31390;SDS011;18022;45.492;11.548;2023-03-01T15:02:30;15.20;;;8.13;;
31390;SDS011;18022;45.492;11.548;2023-03-01T15:04:57;21.23;;;7.73;;
31390;SDS011;18022;45.492;11.548;2023-03-01T15:07:29;19.15;;;8.45;;
31390;SDS011;18022;45.492;11.548;2023-03-01T15:09:56;13.20;;;8.68;;
31390;SDS011;18022;45.492;11.548;2023-03-01T15:14:55;15.75;;;8.98;;
31390;SDS011;18022;45.492;11.548;2023-03-01T15:17:31;15.38;;;8.93;;
31390;SDS011;18022;45.492;11.548;2023-03-01T15:19:57;17.92;;;8.77;;
31390;SDS011;18022;45.492;11.548;2023-03-01T15:22:24;16.23;;;10.73;;
31390;SDS011;18022;45.492;11.548;2023-03-01T15:24:51;19.98;;;10.70;;
31390;SDS011;18022;45.492;11.548;2023-03-01T15:27:22;14.52;;;9.75;;
31390;SDS011;18022;45.492;11.548;2023-03-01T15:29:50;19.95;;;10.60;;
31390;SDS011;18022;45.492;11.548;2023-03-01T15:32:29;15.23;;;11.05;;
31390;SDS011;18022;45.492;11.548;2023-03-01T15:34:56;14.65;;;8.90;;
31390;SDS011;18022;45.492;11.548;2023-03-01T15:40:23;15.60;;;8.25;;
31390;SDS011;18022;45.492;11.548;2023-03-01T15:42:56;12.73;;;8.88;;
31390;SDS011;18022;45.492;11.548;2023-03-01T15:45:24;23.60;;;9.10;;
31390;SDS011;18022;45.492;11.548;2023-03-01T15:47:59;13.95;;;8.57;;
31390;SDS011;18022;45.492;11.548;2023-03-01T15:50:29;13.32;;;8.52;;
31390;SDS011;18022;45.492;11.548;2023-03-01T15:52:58;15.07;;;8.80;;
31390;SDS011;18022;45.492;11.548;2023-03-01T15:55:25;15.45;;;9.05;;
31390;SDS011;18022;45.492;11.548;2023-03-01T15:58:28;17.35;;;8.35;;
31390;SDS011;18022;45.492;11.548;2023-03-01T16:00:47;16.10;;;10.05;;
31390;SDS011;18022;45.492;11.548;2023-03-01T16:03:16;14.75;;;8.48;;
31390;SDS011;18022;45.492;11.548;2023-03-01T16:05:46;16.27;;;9.57;;
31390;SDS011;18022;45.492;11.548;2023-03-01T16:08:12;20.67;;;11.40;;
31390;SDS011;18022;45.492;11.548;2023-03-01T16:10:38;18.35;;;10.00;;
31390;SDS011;18022;45.492;11.548;2023-03-01T16:13:05;9.60;;;7.43;;
31390;SDS011;18022;45.492;11.548;2023-03-01T16:15:32;16.83;;;11.10;;
31390;SDS011;18022;45.492;11.548;2023-03-01T16:18:00;14.45;;;9.75;;
31390;SDS011;18022;45.492;11.548;2023-03-01T16:20:26;11.55;;;7.82;;
31390;SDS011;18022;45.492;11.548;2023-03-01T16:22:52;11.88;;;7.57;;
31390;SDS011;18022;45.492;11.548;2023-03-01T16:25:20;16.35;;;7.60;;
31390;SDS011;18022;45.492;11.548;2023-03-01T16:27:47;13.40;;;8.23;;